ENSD

Sandane , Anda Airport

Sandane, Norway
METAR ENSD 181920Z VRB04KT 9999 FEW030 SCT043 BKN070 12/05 Q1003 RMK WIND 1138FT 19011KT
Observed Flight Rules
Jun-18 @ 19:20 UTC (3 hours ago) Visual Flight Rules
Wind Visibility Clouds
Variable at 4 knots 10,000+ meters
  • Few at 3,000' AGL
  • Scattered at 4,300' AGL
  • Broken at 7,000' AGL
Temperatures Readings
Current 12°C / 54°F
Dewpoint 5°C / 41°F
Humidity 63%
Altimeter 29.62" Hg
Pressure 1003 hPa
Elevation 60
METAR ENSD 181920Z VRB04KT 9999 FEW030 SCT043 BKN070 12/05 Q1003 RMK WIND 1138FT 19011KT
Observed Flight Rules
Jun-18 @ 19:20 UTC
(3 hours ago)
VFR
Wind Visibility
Variable at 4 knots 10,000+ meters
Clouds
  • Few at 3,000' AGL
  • Scattered at 4,300' AGL
  • Broken at 7,000' AGL
Temperature Dewpoint
12°C / 54°F 5°C / 41°F
Humidity Altimeter Pressure
63% 29.62" Hg 1003 hPa